createdAt,value
2022-08-11T00:01:25.548Z,97097.77
2022-08-11T00:03:57.366Z,97095.23
2022-08-11T00:06:35.402Z,97092.73
2022-08-11T00:09:31.575Z,97092.14
2022-08-11T00:12:17.191Z,97087.55
2022-08-11T00:14:55.175Z,97089.70
2022-08-11T00:17:29.217Z,97091.31
2022-08-11T00:20:11.514Z,97089.23
2022-08-11T00:22:46.590Z,97093.77
2022-08-11T00:25:21.484Z,97093.64
2022-08-11T00:27:49.935Z,97093.23
2022-08-11T00:30:18.339Z,97095.89
2022-08-11T00:32:59.139Z,97093.85
2022-08-11T00:35:55.215Z,97090.98
2022-08-11T00:38:25.366Z,97092.98
2022-08-11T00:40:59.184Z,97090.65
2022-08-11T00:43:49.034Z,97089.23
2022-08-11T00:46:17.100Z,97092.59
2022-08-11T00:49:19.649Z,97094.34
2022-08-11T00:52:05.391Z,97093.08
2022-08-11T00:54:40.117Z,97090.52
2022-08-11T00:57:37.135Z,97090.55
2022-08-11T01:00:19.319Z,97091.51
2022-08-11T01:03:13.661Z,97094.02
2022-08-11T01:06:23.301Z,97092.18
2022-08-11T01:09:22.406Z,97092.81
2022-08-11T01:12:22.803Z,97093.04
2022-08-11T01:15:12.491Z,97090.98
2022-08-11T01:18:14.785Z,97087.60
2022-08-11T01:21:34.626Z,97086.45
2022-08-11T01:24:37.485Z,97084.00
2022-08-11T01:27:24.490Z,97080.22
2022-08-11T01:30:40.761Z,97077.56
2022-08-11T01:33:48.474Z,97076.97
2022-08-11T01:36:53.434Z,97080.08
2022-08-11T01:39:49.763Z,97074.36
2022-08-11T01:43:02.227Z,97073.39
2022-08-11T01:46:27.411Z,97071.52
2022-08-11T01:50:05.848Z,97070.42
2022-08-11T01:52:33.589Z,97070.66
2022-08-11T01:55:27.162Z,97068.64
2022-08-11T01:58:16.361Z,97070.42
2022-08-11T02:01:29.146Z,97070.78
2022-08-11T02:04:20.086Z,97067.55
2022-08-11T02:07:02.939Z,97074.33
2022-08-11T02:09:52.725Z,97077.52
2022-08-11T02:12:48.259Z,97076.23
2022-08-11T02:15:39.849Z,97073.43
2022-08-11T02:18:14.407Z,97070.16
2022-08-11T02:21:10.767Z,97068.36
2022-08-11T02:24:05.912Z,97066.91
2022-08-11T02:26:44.764Z,97070.86
2022-08-11T02:29:21.514Z,97066.27
2022-08-11T02:32:32.092Z,97062.77
2022-08-11T02:35:16.258Z,97060.93
2022-08-11T02:38:10.615Z,97057.06
2022-08-11T02:40:53.253Z,97056.14
2022-08-11T02:43:29.882Z,97059.91
2022-08-11T02:46:18.687Z,97061.34
2022-08-11T02:50:00.027Z,97057.66
2022-08-11T02:52:55.123Z,97057.83
2022-08-11T02:55:57.938Z,97061.48
2022-08-11T02:58:39.511Z,97060.39
2022-08-11T03:01:28.764Z,97057.63
2022-08-11T03:04:16.080Z,97059.29
2022-08-11T03:07:28.295Z,97056.95
2022-08-11T03:10:18.207Z,97062.30
2022-08-11T03:13:12.340Z,97065.98
2022-08-11T03:16:26.985Z,97061.73
2022-08-11T03:19:23.487Z,97066.65
2022-08-11T03:22:17.558Z,97068.83
2022-08-11T03:25:00.940Z,97068.89
2022-08-11T03:27:33.871Z,97069.63
2022-08-11T03:30:22.188Z,97071.61
2022-08-11T03:33:27.075Z,97072.03
2022-08-11T03:36:14.474Z,97066.25
2022-08-11T03:39:03.979Z,97060.00
2022-08-11T03:42:04.189Z,97060.05
2022-08-11T03:45:01.566Z,97056.05
2022-08-11T03:47:54.889Z,97058.80
2022-08-11T03:50:54.859Z,97057.05
2022-08-11T03:53:40.091Z,97054.75
2022-08-11T03:56:20.976Z,97051.56
2022-08-11T03:59:05.046Z,97049.95
2022-08-11T04:02:10.682Z,97053.34
2022-08-11T04:05:26.248Z,97054.49
2022-08-11T04:07:54.469Z,97056.28
2022-08-11T04:10:54.958Z,97053.30
2022-08-11T04:14:16.879Z,97055.01
2022-08-11T04:16:59.142Z,97061.16
2022-08-11T04:19:43.078Z,97059.13
2022-08-11T04:22:21.290Z,97056.52
2022-08-11T04:25:29.330Z,97059.44
2022-08-11T04:28:34.830Z,97060.70
2022-08-11T04:31:44.244Z,97061.10
2022-08-11T04:34:52.154Z,97063.09
2022-08-11T04:37:36.099Z,97068.39
2022-08-11T04:40:22.164Z,97066.74
2022-08-11T04:43:20.845Z,97068.23
2022-08-11T04:46:07.027Z,97070.80
2022-08-11T04:49:34.186Z,97071.26
2022-08-11T04:52:16.998Z,97074.02
2022-08-11T04:55:29.058Z,97073.79
2022-08-11T04:58:40.530Z,97068.58
2022-08-11T05:01:42.493Z,97070.30
2022-08-11T05:04:48.263Z,97070.27
2022-08-11T05:07:54.285Z,97074.64
2022-08-11T05:10:43.023Z,97078.50
2022-08-11T05:13:41.638Z,97079.95
2022-08-11T05:16:35.876Z,97078.13
2022-08-11T05:19:23.555Z,97075.92
2022-08-11T05:22:18.197Z,97075.70
2022-08-11T05:25:11.362Z,97071.77
2022-08-11T05:28:09.163Z,97069.40
2022-08-11T05:31:00.826Z,97073.27
2022-08-11T05:34:04.599Z,97074.70
2022-08-11T05:36:45.301Z,97071.99
2022-08-11T05:39:37.189Z,97073.66
2022-08-11T05:42:29.481Z,97069.64
2022-08-11T05:45:23.473Z,97069.31
2022-08-11T05:48:11.696Z,97068.38
2022-08-11T05:50:59.441Z,97065.04
2022-08-11T05:53:47.478Z,97065.20
2022-08-11T05:56:22.327Z,97064.79
2022-08-11T05:58:53.978Z,97065.26
2022-08-11T06:01:32.088Z,97067.59
2022-08-11T06:04:15.911Z,97068.05
2022-08-11T06:06:54.858Z,97062.90
2022-08-11T06:09:32.446Z,97058.18
2022-08-11T06:12:09.562Z,97059.08
2022-08-11T06:14:43.544Z,97057.92
2022-08-11T06:17:14.104Z,97055.02
2022-08-11T06:19:47.087Z,97054.08
2022-08-11T06:22:22.018Z,97059.06
2022-08-11T06:25:10.565Z,97065.17
2022-08-11T06:27:43.372Z,97060.02
2022-08-11T06:30:16.162Z,97057.89
2022-08-11T06:32:46.840Z,97057.00
2022-08-11T06:35:37.944Z,97054.23
2022-08-11T06:38:16.409Z,97054.92
2022-08-11T06:41:12.272Z,97054.49
2022-08-11T06:44:06.865Z,97054.75
2022-08-11T06:46:41.789Z,97055.62
2022-08-11T06:49:31.214Z,97056.62
2022-08-11T06:52:04.519Z,97056.39
2022-08-11T06:54:35.548Z,97055.80
2022-08-11T06:57:31.528Z,97059.98
2022-08-11T07:00:20.366Z,97059.33
2022-08-11T07:03:04.237Z,97060.92
2022-08-11T07:05:45.151Z,97062.91
2022-08-11T07:08:44.291Z,97062.40
2022-08-11T07:12:18.171Z,97064.87
2022-08-11T07:15:19.133Z,97065.83
2022-08-11T07:18:11.799Z,97063.82
2022-08-11T07:21:02.296Z,97063.08
2022-08-11T07:23:55.534Z,97066.39
2022-08-11T07:26:45.035Z,97061.44
2022-08-11T07:29:15.230Z,97059.73
2022-08-11T07:31:51.584Z,97061.04
2022-08-11T07:34:36.489Z,97056.13
2022-08-11T07:37:12.844Z,97052.21
2022-08-11T07:39:44.661Z,97048.90
2022-08-11T07:42:16.896Z,97049.58
2022-08-11T07:45:08.000Z,97050.84
2022-08-11T07:47:56.244Z,97050.86
2022-08-11T07:50:43.987Z,97048.66
2022-08-11T07:53:15.390Z,97044.39
2022-08-11T07:55:48.888Z,97044.96
2022-08-11T07:58:45.223Z,97042.73
2022-08-11T08:01:44.828Z,97037.79
2022-08-11T08:04:34.021Z,97035.77
2022-08-11T08:07:23.492Z,97035.21
2022-08-11T08:10:16.137Z,97036.48
2022-08-11T08:13:04.264Z,97033.45
2022-08-11T08:15:51.678Z,97025.38
2022-08-11T08:18:26.803Z,97021.31
2022-08-11T08:21:12.363Z,97022.10
2022-08-11T08:23:43.897Z,97018.75
2022-08-11T08:26:34.695Z,97014.34
2022-08-11T08:29:28.099Z,97016.27
2022-08-11T08:31:58.235Z,97012.14
2022-08-11T08:34:27.795Z,97008.92
2022-08-11T08:37:03.290Z,97010.70
2022-08-11T08:39:46.419Z,97011.94
2022-08-11T08:42:21.731Z,97006.50
2022-08-11T08:44:54.631Z,97006.70
2022-08-11T08:47:42.208Z,97008.53
2022-08-11T08:50:16.881Z,97009.48
2022-08-11T08:52:53.894Z,97010.57
2022-08-11T08:55:23.727Z,97010.63
2022-08-11T08:57:57.232Z,97008.44
2022-08-11T09:00:25.681Z,97005.16
2022-08-11T09:02:55.482Z,97005.63
2022-08-11T09:05:26.061Z,97002.93
2022-08-11T09:09:09.890Z,97000.36
2022-08-11T09:12:52.600Z,96995.38
2022-08-11T09:15:43.279Z,96998.87
2022-08-11T09:18:13.120Z,97001.06
2022-08-11T09:20:42.723Z,96997.60
2022-08-11T09:26:37.834Z,96991.72
2022-08-11T09:29:08.861Z,96993.41
2022-08-11T09:31:40.506Z,96992.77
2022-08-11T09:34:14.749Z,96988.73
2022-08-11T09:37:03.480Z,96986.25
2022-08-11T09:39:55.235Z,96982.84
2022-08-11T09:42:44.543Z,96979.09
2022-08-11T09:45:14.055Z,96977.60
2022-08-11T09:47:44.870Z,96978.46
2022-08-11T09:50:17.801Z,96976.05
2022-08-11T09:53:16.940Z,96979.88
2022-08-11T09:55:38.691Z,96977.08
2022-08-11T09:58:41.652Z,96971.20
2022-08-11T10:01:08.067Z,96974.02
2022-08-11T10:03:41.689Z,96973.21
2022-08-11T10:06:33.195Z,96970.86
2022-08-11T10:09:07.104Z,96973.47
2022-08-11T10:11:37.838Z,96969.90
2022-08-11T10:14:32.936Z,96970.85
2022-08-11T10:17:09.180Z,96972.55
2022-08-11T10:19:39.552Z,96967.89
2022-08-11T10:22:27.776Z,96965.40
2022-08-11T10:25:19.824Z,96962.31
2022-08-11T10:28:28.946Z,96964.30
2022-08-11T10:31:06.926Z,96964.35
2022-08-11T10:34:04.170Z,96961.00
2022-08-11T10:36:35.714Z,96960.27
2022-08-11T10:39:05.938Z,96958.36
2022-08-11T10:42:08.475Z,96953.02
2022-08-11T10:44:43.047Z,96950.67
2022-08-11T10:47:32.766Z,96951.23
2022-08-11T10:50:27.119Z,96952.86
2022-08-11T10:53:18.379Z,96944.63
2022-08-11T10:56:06.589Z,96942.40
2022-08-11T10:58:50.008Z,96941.30
2022-08-11T11:01:24.468Z,96940.09
2022-08-11T11:04:00.800Z,96936.32
2022-08-11T11:06:47.286Z,96937.04
2022-08-11T11:09:20.622Z,96940.52
2022-08-11T11:12:15.398Z,96940.77
2022-08-11T11:15:03.489Z,96934.08
2022-08-11T11:18:02.125Z,96932.27
2022-08-11T11:20:47.779Z,96932.87
2022-08-11T11:23:24.136Z,96926.14
2022-08-11T11:26:07.133Z,96924.95
2022-08-11T11:28:43.215Z,96921.14
2022-08-11T11:31:43.940Z,96918.52
2022-08-11T11:34:22.214Z,96916.40
2022-08-11T11:36:56.899Z,96917.49
2022-08-11T11:39:28.065Z,96916.16
2022-08-11T11:41:59.887Z,96912.67
2022-08-11T11:44:29.199Z,96909.36
2022-08-11T11:46:58.783Z,96905.97
2022-08-11T11:49:29.960Z,96906.58
2022-08-11T11:52:00.287Z,96909.16
2022-08-11T11:54:34.059Z,96903.63
2022-08-11T11:57:22.651Z,96905.01
2022-08-11T12:00:11.283Z,96900.80
2022-08-11T12:02:41.977Z,96895.96
2022-08-11T12:05:11.750Z,96892.14
2022-08-11T12:08:12.769Z,96894.16
2022-08-11T12:10:47.578Z,96887.48
2022-08-11T12:13:36.407Z,96881.08
2022-08-11T12:16:34.517Z,96871.67
2022-08-11T12:19:01.899Z,96873.98
2022-08-11T12:21:32.078Z,96875.33
2022-08-11T12:24:20.695Z,96872.98
2022-08-11T12:27:01.420Z,96867.26
2022-08-11T12:29:41.301Z,96864.27
2022-08-11T12:32:12.425Z,96862.95
2022-08-11T12:34:40.990Z,96860.92
2022-08-11T12:37:14.043Z,96860.36
2022-08-11T12:40:16.434Z,96862.09
2022-08-11T12:43:22.019Z,96864.80
2022-08-11T12:45:58.962Z,96863.23
2022-08-11T12:48:59.054Z,96857.58
2022-08-11T12:52:11.977Z,96858.41
2022-08-11T12:54:59.018Z,96855.11
2022-08-11T12:57:56.952Z,96849.05
2022-08-11T13:00:45.999Z,96848.77
2022-08-11T13:03:33.358Z,96850.23
2022-08-11T13:06:04.062Z,96850.13
2022-08-11T13:08:38.655Z,96851.98
2022-08-11T13:11:56.198Z,96848.58
2022-08-11T13:14:17.269Z,96847.79
2022-08-11T13:17:04.766Z,96847.71
2022-08-11T13:19:34.758Z,96843.86
2022-08-11T13:22:05.582Z,96845.57
2022-08-11T13:24:36.119Z,96843.86
2022-08-11T13:27:05.156Z,96840.93
2022-08-11T13:29:36.161Z,96837.23
2022-08-11T13:32:04.740Z,96839.70
2022-08-11T13:34:35.524Z,96838.25
2022-08-11T13:37:05.492Z,96833.38
2022-08-11T13:39:35.705Z,96833.56
2022-08-11T13:42:05.384Z,96833.11
2022-08-11T13:44:38.532Z,96826.70
2022-08-11T13:47:09.006Z,96820.61
2022-08-11T13:49:40.097Z,96816.50
2022-08-11T13:52:17.092Z,96813.59
2022-08-11T13:54:48.362Z,96814.94
2022-08-11T13:58:08.911Z,96812.34
2022-08-11T14:00:12.925Z,96815.23
2022-08-11T14:02:54.346Z,96817.70
2022-08-11T14:05:31.535Z,96815.11
2022-08-11T14:08:04.141Z,96819.79
2022-08-11T14:10:35.876Z,96820.45
2022-08-11T14:13:29.527Z,96820.54
2022-08-11T14:16:18.810Z,96815.83
2022-08-11T14:18:52.463Z,96820.34
2022-08-11T14:21:42.509Z,96823.05
2022-08-11T14:24:11.971Z,96823.25
2022-08-11T14:26:43.694Z,96818.02
2022-08-11T14:29:14.786Z,96815.23
2022-08-11T14:31:54.979Z,96818.88
2022-08-11T14:34:30.334Z,96816.06
2022-08-11T14:37:01.934Z,96811.84
2022-08-11T14:39:37.047Z,96813.33
2022-08-11T14:42:25.814Z,96814.51
2022-08-11T14:45:18.590Z,96814.92
2022-08-11T14:47:51.520Z,96815.58
2022-08-11T14:50:26.608Z,96817.73
2022-08-11T14:53:09.413Z,96817.52
2022-08-11T14:56:01.535Z,96813.21
2022-08-11T14:58:31.444Z,96809.83
2022-08-11T15:01:02.963Z,96805.85
2022-08-11T15:03:33.972Z,96807.11
2022-08-11T15:06:05.470Z,96804.85
2022-08-11T15:08:55.231Z,96807.17
2022-08-11T15:11:44.958Z,96806.08
2022-08-11T15:14:14.963Z,96802.70
2022-08-11T15:17:03.582Z,96797.61
2022-08-11T15:19:40.282Z,96795.73
2022-08-11T15:22:29.381Z,96795.54
2022-08-11T15:25:00.014Z,96792.23
2022-08-11T15:27:52.318Z,96792.58
2022-08-11T15:30:41.097Z,96786.36
2022-08-11T15:33:30.654Z,96780.77
2022-08-11T15:36:22.002Z,96782.75
2022-08-11T15:39:03.518Z,96784.47
2022-08-11T15:42:12.782Z,96782.98
2022-08-11T15:45:04.133Z,96779.16
2022-08-11T15:48:05.662Z,96778.31
2022-08-11T15:50:42.836Z,96773.77
2022-08-11T15:53:30.274Z,96772.41
2022-08-11T15:56:00.491Z,96768.91
2022-08-11T15:59:42.487Z,96770.29
2022-08-11T16:02:04.505Z,96772.62
2022-08-11T16:04:35.386Z,96774.80
2022-08-11T16:07:06.431Z,96769.65
2022-08-11T16:10:00.198Z,96775.00
2022-08-11T16:12:32.998Z,96777.41
2022-08-11T16:15:28.988Z,96775.38
2022-08-11T16:18:05.315Z,96778.52
2022-08-11T16:20:35.163Z,96783.80
2022-08-11T16:23:07.710Z,96785.16
2022-08-11T16:27:05.986Z,96786.02
2022-08-11T16:28:27.712Z,96787.91
2022-08-11T16:30:57.807Z,96788.52
2022-08-11T16:33:49.916Z,96784.55
2022-08-11T16:36:35.339Z,96784.47
2022-08-11T16:39:05.914Z,96785.84
2022-08-11T16:41:56.376Z,96787.29
2022-08-11T16:44:45.683Z,96786.26
2022-08-11T16:47:16.871Z,96787.80
2022-08-11T16:49:53.273Z,96789.09
2022-08-11T16:52:24.416Z,96784.82
2022-08-11T16:54:52.954Z,96784.55
2022-08-11T16:57:45.890Z,96789.13
2022-08-11T17:00:17.592Z,96790.63
2022-08-11T17:03:09.089Z,96789.58
2022-08-11T17:06:10.492Z,96791.48
2022-08-11T17:09:11.075Z,96790.14
2022-08-11T17:12:09.078Z,96788.06
2022-08-11T17:14:55.476Z,96787.02
2022-08-11T17:17:33.210Z,96786.96
2022-08-11T17:20:42.470Z,96787.32
2022-08-11T17:23:19.142Z,96790.70
2022-08-11T17:26:03.050Z,96793.08
2022-08-11T17:28:35.114Z,96797.83
2022-08-11T17:31:23.516Z,96797.86
2022-08-11T17:34:11.223Z,96798.71
2022-08-11T17:36:45.260Z,96803.80
2022-08-11T17:39:15.765Z,96802.59
2022-08-11T17:42:03.782Z,96803.77
2022-08-11T17:44:52.985Z,96806.20
2022-08-11T17:47:40.406Z,96811.80
2022-08-11T17:50:17.659Z,96808.83
2022-08-11T17:53:08.255Z,96806.81
2022-08-11T17:55:57.906Z,96810.91
2022-08-11T17:58:46.211Z,96812.10
2022-08-11T18:01:16.296Z,96812.39
2022-08-11T18:03:56.239Z,96818.27
2022-08-11T18:06:34.917Z,96820.44
2022-08-11T18:09:26.487Z,96824.14
2022-08-11T18:12:16.709Z,96824.00
2022-08-11T18:15:07.508Z,96827.99
2022-08-11T18:17:56.184Z,96830.01
2022-08-11T18:20:43.993Z,96828.97
2022-08-11T18:23:46.896Z,96834.66
2022-08-11T18:26:39.563Z,96836.95
2022-08-11T18:29:30.076Z,96838.73
2022-08-11T18:32:21.988Z,96842.20
2022-08-11T18:35:13.660Z,96846.21
2022-08-11T18:38:05.810Z,96846.01
2022-08-11T18:40:54.410Z,96852.70
2022-08-11T18:43:44.377Z,96855.58
2022-08-11T18:46:35.288Z,96865.35
2022-08-11T18:50:02.458Z,96866.13
2022-08-11T18:52:48.555Z,96866.46
2022-08-11T18:55:38.655Z,96871.18
2022-08-11T18:58:28.701Z,96874.25
2022-08-11T19:01:19.351Z,96876.39
2022-08-11T19:04:10.669Z,96875.27
2022-08-11T19:07:02.413Z,96873.88
2022-08-11T19:09:51.110Z,96876.84
2022-08-11T19:12:40.228Z,96877.42
2022-08-11T19:15:29.186Z,96887.87
2022-08-11T19:18:16.394Z,96887.78
2022-08-11T19:21:04.383Z,96888.27
2022-08-11T19:23:57.880Z,96890.80
2022-08-11T19:26:47.063Z,96892.68
2022-08-11T19:30:05.093Z,96895.88
2022-08-11T19:32:48.347Z,96896.89
2022-08-11T19:35:38.620Z,96898.29
2022-08-11T19:38:27.445Z,96895.44
2022-08-11T19:41:17.920Z,96896.30
2022-08-11T19:44:26.654Z,96898.60
2022-08-11T19:47:15.111Z,96900.08
2022-08-11T19:50:03.868Z,96905.37
2022-08-11T19:52:53.341Z,96903.17
2022-08-11T19:55:40.942Z,96902.36
2022-08-11T19:58:28.969Z,96899.00
2022-08-11T20:01:16.431Z,96900.30
2022-08-11T20:04:04.270Z,96900.77
2022-08-11T20:06:52.501Z,96899.73
2022-08-11T20:10:06.109Z,96899.86
2022-08-11T20:12:50.642Z,96900.44
2022-08-11T20:15:39.599Z,96903.56
2022-08-11T20:18:30.154Z,96902.91
2022-08-11T20:21:31.124Z,96900.86
2022-08-11T20:24:21.588Z,96897.94
2022-08-11T20:27:24.144Z,96902.09
2022-08-11T20:30:12.749Z,96906.48
2022-08-11T20:33:01.689Z,96905.03
2022-08-11T20:35:51.906Z,96906.48
2022-08-11T20:38:41.178Z,96909.21
2022-08-11T20:41:31.430Z,96912.68
2022-08-11T20:44:37.262Z,96919.83
2022-08-11T20:47:26.727Z,96924.08
2022-08-11T20:50:19.278Z,96922.16
2022-08-11T20:53:09.292Z,96924.96
2022-08-11T20:55:57.855Z,96925.95
2022-08-11T20:59:13.877Z,96932.83
2022-08-11T21:01:56.374Z,96937.27
2022-08-11T21:04:54.390Z,96940.86
2022-08-11T21:07:57.095Z,96939.36
2022-08-11T21:10:51.447Z,96940.39
2022-08-11T21:13:40.506Z,96946.44
2022-08-11T21:16:28.632Z,96950.75
2022-08-11T21:20:01.303Z,96947.59
2022-08-11T21:22:59.657Z,96951.58
2022-08-11T21:25:59.774Z,96949.98
2022-08-11T21:28:50.415Z,96952.45
2022-08-11T21:31:39.096Z,96954.83
2022-08-11T21:34:29.462Z,96955.12
2022-08-11T21:37:19.258Z,96958.92
2022-08-11T21:40:10.680Z,96962.11
2022-08-11T21:43:02.297Z,96968.19
2022-08-11T21:45:52.875Z,96969.35
2022-08-11T21:48:42.591Z,96972.17
2022-08-11T21:51:30.314Z,96972.99
2022-08-11T21:54:19.727Z,96973.92
2022-08-11T21:57:07.939Z,96973.36
2022-08-11T22:00:06.854Z,96972.04
2022-08-11T22:02:59.202Z,96970.15
2022-08-11T22:05:48.207Z,96970.01
2022-08-11T22:08:36.992Z,96975.81
2022-08-11T22:11:31.905Z,96980.52
2022-08-11T22:14:20.841Z,96983.90
2022-08-11T22:17:08.705Z,96987.47
2022-08-11T22:19:58.058Z,96988.19
2022-08-11T22:22:52.242Z,96987.41
2022-08-11T22:25:51.473Z,96984.06
2022-08-11T22:28:42.174Z,96982.14
2022-08-11T22:31:31.305Z,96985.39
2022-08-11T22:34:18.958Z,96987.14
2022-08-11T22:37:07.616Z,96982.51
2022-08-11T22:40:02.339Z,96980.92
2022-08-11T22:42:51.381Z,96982.39
2022-08-11T22:45:39.198Z,96983.43
2022-08-11T22:48:28.415Z,96980.55
2022-08-11T22:51:18.290Z,96982.06
2022-08-11T22:54:06.277Z,96983.93
2022-08-11T22:56:54.394Z,96983.37
2022-08-11T22:59:42.801Z,96982.75
2022-08-11T23:02:30.644Z,96984.91
2022-08-11T23:05:18.460Z,96981.64
2022-08-11T23:08:06.006Z,96980.36
2022-08-11T23:10:53.399Z,96977.34
2022-08-11T23:13:40.558Z,96972.64
2022-08-11T23:16:27.738Z,96972.20
2022-08-11T23:20:06.625Z,96969.65
2022-08-11T23:22:23.669Z,96969.55
2022-08-11T23:25:30.887Z,96972.53
2022-08-11T23:28:19.779Z,96976.23
2022-08-11T23:31:10.077Z,96978.50
2022-08-11T23:34:01.229Z,96976.43
2022-08-11T23:36:48.113Z,96974.27
2022-08-11T23:39:35.782Z,96973.77
2022-08-11T23:42:24.043Z,96970.77
2022-08-11T23:45:11.151Z,96975.09
2022-08-11T23:48:00.670Z,96975.80
2022-08-11T23:50:48.351Z,96974.61
2022-08-11T23:53:36.951Z,96978.88
2022-08-11T23:56:24.487Z,96975.54
2022-08-11T23:59:16.408Z,96974.82
